createdAt,value
2022-07-30T00:00:19.758Z,19.00
2022-07-30T00:02:52.577Z,18.90
2022-07-30T00:05:19.596Z,19.60
2022-07-30T00:07:46.437Z,19.00
2022-07-30T00:10:13.339Z,18.90
2022-07-30T00:12:40.251Z,19.60
2022-07-30T00:15:07.891Z,18.90
2022-07-30T00:17:34.730Z,18.90
2022-07-30T00:20:02.074Z,18.80
2022-07-30T00:22:31.142Z,19.90
2022-07-30T00:24:58.052Z,18.80
2022-07-30T00:27:25.547Z,18.90
2022-07-30T00:29:52.393Z,19.10
2022-07-30T00:32:19.417Z,19.70
2022-07-30T00:34:46.355Z,20.20
2022-07-30T00:37:13.208Z,18.70
2022-07-30T00:39:40.116Z,19.10
2022-07-30T00:42:07.249Z,18.80
2022-07-30T00:44:34.055Z,18.80
2022-07-30T00:47:01.247Z,18.80
2022-07-30T00:49:28.310Z,18.70
2022-07-30T00:51:55.609Z,18.90
2022-07-30T00:54:22.546Z,19.70
2022-07-30T00:56:49.832Z,18.70
2022-07-30T00:59:17.360Z,18.70
2022-07-30T01:01:44.235Z,18.40
2022-07-30T01:04:13.757Z,18.40
2022-07-30T01:06:40.756Z,18.50
2022-07-30T01:09:08.445Z,18.50
2022-07-30T01:11:40.540Z,21.00
2022-07-30T01:14:09.303Z,19.10
2022-07-30T01:16:38.399Z,19.60
2022-07-30T01:19:30.473Z,18.50
2022-07-30T01:22:16.448Z,18.40
2022-07-30T01:24:52.228Z,18.50
2022-07-30T01:27:20.860Z,18.70
2022-07-30T01:29:49.563Z,18.50
2022-07-30T01:32:19.808Z,18.50
2022-07-30T01:34:47.803Z,18.50
2022-07-30T01:37:16.849Z,18.40
2022-07-30T01:39:44.717Z,18.40
2022-07-30T01:42:13.677Z,18.60
2022-07-30T01:44:42.356Z,18.20
2022-07-30T01:47:11.461Z,20.40
2022-07-30T01:49:39.503Z,20.00
2022-07-30T01:52:08.356Z,19.10
2022-07-30T01:54:36.342Z,18.50
2022-07-30T01:57:04.977Z,18.30
2022-07-30T01:59:34.884Z,18.30
2022-07-30T02:02:02.208Z,18.30
2022-07-30T02:04:29.791Z,18.20
2022-07-30T02:07:02.792Z,18.40
2022-07-30T02:09:36.071Z,18.20
2022-07-30T02:12:23.361Z,18.50
2022-07-30T02:14:56.469Z,18.20
2022-07-30T02:17:30.475Z,18.20
2022-07-30T02:20:09.320Z,18.30
2022-07-30T02:22:42.677Z,18.20
2022-07-30T02:25:10.714Z,18.60
2022-07-30T02:27:40.528Z,18.70
2022-07-30T02:30:08.635Z,18.20
2022-07-30T02:32:39.570Z,18.20
2022-07-30T02:35:18.729Z,18.20
2022-07-30T02:37:48.342Z,18.20
2022-07-30T02:40:18.022Z,18.30
2022-07-30T02:42:46.933Z,17.50
2022-07-30T02:45:17.828Z,18.20
2022-07-30T02:47:53.556Z,19.10
2022-07-30T02:50:22.022Z,18.10
2022-07-30T02:52:50.398Z,18.00
2022-07-30T02:55:18.247Z,18.00
2022-07-30T02:57:47.272Z,18.00
2022-07-30T03:00:14.569Z,18.00
2022-07-30T03:02:43.742Z,17.90
2022-07-30T03:05:13.767Z,18.40
2022-07-30T03:07:41.282Z,18.00
2022-07-30T03:10:09.122Z,18.30
2022-07-30T03:12:37.940Z,18.10
2022-07-30T03:15:05.476Z,18.00
2022-07-30T03:17:38.789Z,18.00
2022-07-30T03:20:10.508Z,17.90
2022-07-30T03:22:42.261Z,17.90
2022-07-30T03:25:10.959Z,18.00
2022-07-30T03:27:38.418Z,17.90
2022-07-30T03:30:06.720Z,18.40
2022-07-30T03:32:35.943Z,17.90
2022-07-30T03:35:06.405Z,18.00
2022-07-30T03:37:39.163Z,18.10
2022-07-30T03:40:07.757Z,17.90
2022-07-30T03:42:35.580Z,17.90
2022-07-30T03:45:06.507Z,17.80
2022-07-30T03:47:36.655Z,17.70
2022-07-30T03:50:04.198Z,18.30
2022-07-30T03:52:34.646Z,17.70
2022-07-30T03:55:03.602Z,17.90
2022-07-30T03:57:30.805Z,17.70
2022-07-30T03:59:57.743Z,17.70
2022-07-30T04:02:25.003Z,18.80
2022-07-30T04:04:52.078Z,17.70
2022-07-30T04:07:18.904Z,17.60
2022-07-30T04:09:45.934Z,17.70
2022-07-30T04:12:13.927Z,17.70
2022-07-30T04:14:42.413Z,17.90
2022-07-30T04:17:22.976Z,17.70
2022-07-30T04:19:57.776Z,17.70
2022-07-30T04:22:30.429Z,17.70
2022-07-30T04:24:59.235Z,17.70
2022-07-30T04:27:27.123Z,17.90
2022-07-30T04:29:55.010Z,17.90
2022-07-30T04:32:22.485Z,18.20
2022-07-30T04:34:54.702Z,17.70
2022-07-30T04:37:24.295Z,17.60
2022-07-30T04:39:54.256Z,17.70
2022-07-30T04:42:21.926Z,18.10
2022-07-30T04:44:49.910Z,17.50
2022-07-30T04:47:17.802Z,17.50
2022-07-30T04:49:46.344Z,17.50
2022-07-30T04:52:14.874Z,17.50
2022-07-30T04:54:55.839Z,17.70
2022-07-30T04:57:24.657Z,17.70
2022-07-30T04:59:51.731Z,17.80
2022-07-30T05:02:20.877Z,18.30
2022-07-30T05:04:48.958Z,17.90
2022-07-30T05:07:18.198Z,18.10
2022-07-30T05:09:49.866Z,18.00
2022-07-30T05:12:16.800Z,18.00
2022-07-30T05:14:48.118Z,18.10
2022-07-30T05:17:15.182Z,18.10
2022-07-30T05:19:41.974Z,18.40
2022-07-30T05:22:08.781Z,18.20
2022-07-30T05:24:35.603Z,19.10
2022-07-30T05:27:02.823Z,18.30
2022-07-30T05:29:29.873Z,18.40
2022-07-30T05:31:56.931Z,18.50
2022-07-30T05:34:30.240Z,19.90
2022-07-30T05:36:57.056Z,19.00
2022-07-30T05:39:24.645Z,18.90
2022-07-30T05:41:51.436Z,19.40
2022-07-30T05:44:22.147Z,19.20
2022-07-30T05:46:50.861Z,19.30
2022-07-30T05:49:17.972Z,19.20
2022-07-30T05:51:45.109Z,19.60
2022-07-30T05:54:11.990Z,19.50
2022-07-30T05:56:40.849Z,19.60
2022-07-30T05:59:07.754Z,19.70
2022-07-30T06:01:34.625Z,19.80
2022-07-30T06:04:01.673Z,20.60
2022-07-30T06:06:28.519Z,19.80
2022-07-30T06:08:55.340Z,19.90
2022-07-30T06:11:22.467Z,20.00
2022-07-30T06:13:49.594Z,20.00
2022-07-30T06:16:16.686Z,20.20
2022-07-30T06:18:43.533Z,20.30
2022-07-30T06:21:10.400Z,20.10
2022-07-30T06:23:37.234Z,20.30
2022-07-30T06:26:04.153Z,20.60
2022-07-30T06:28:39.138Z,20.60
2022-07-30T06:31:07.697Z,20.90
2022-07-30T06:33:34.891Z,21.40
2022-07-30T06:36:01.879Z,21.40
2022-07-30T06:38:28.767Z,22.30
2022-07-30T06:41:00.529Z,21.50
2022-07-30T06:43:29.635Z,21.50
2022-07-30T06:45:56.552Z,21.80
2022-07-30T06:48:23.606Z,22.10
2022-07-30T06:50:50.550Z,22.20
2022-07-30T06:53:17.476Z,22.00
2022-07-30T06:55:44.491Z,22.10
2022-07-30T06:58:11.306Z,22.30
2022-07-30T07:00:38.146Z,22.10
2022-07-30T07:03:07.537Z,22.40
2022-07-30T07:05:41.118Z,22.70
2022-07-30T07:08:10.787Z,23.00
2022-07-30T07:10:37.730Z,22.90
2022-07-30T07:13:04.559Z,23.10
2022-07-30T07:15:36.720Z,24.80
2022-07-30T07:18:07.259Z,22.70
2022-07-30T07:20:37.130Z,22.70
2022-07-30T07:23:12.028Z,22.40
2022-07-30T07:25:40.205Z,22.10
2022-07-30T07:28:11.274Z,22.50
2022-07-30T07:30:43.494Z,21.70
2022-07-30T07:33:15.433Z,21.70
2022-07-30T07:35:49.684Z,21.70
2022-07-30T07:38:18.551Z,20.40
2022-07-30T07:40:46.133Z,22.30
2022-07-30T07:43:13.650Z,22.50
2022-07-30T07:45:42.420Z,23.30
2022-07-30T07:48:09.420Z,22.90
2022-07-30T07:50:36.332Z,22.80
2022-07-30T07:53:03.202Z,23.40
2022-07-30T07:55:31.660Z,23.10
2022-07-30T07:58:00.910Z,23.30
2022-07-30T08:00:27.954Z,23.50
2022-07-30T08:02:55.144Z,23.80
2022-07-30T08:05:23.258Z,24.20
2022-07-30T08:07:50.554Z,24.00
2022-07-30T08:10:17.464Z,24.00
2022-07-30T08:12:44.614Z,24.50
2022-07-30T08:15:11.731Z,24.50
2022-07-30T08:17:42.446Z,25.30
2022-07-30T08:20:11.049Z,24.80
2022-07-30T08:22:38.251Z,25.00
2022-07-30T08:25:05.811Z,24.80
2022-07-30T08:27:32.660Z,24.80
2022-07-30T08:30:06.762Z,24.80
2022-07-30T08:32:33.950Z,25.00
2022-07-30T08:35:00.813Z,25.20
2022-07-30T08:37:28.005Z,25.80
2022-07-30T08:39:54.804Z,25.40
2022-07-30T08:42:23.202Z,25.30
2022-07-30T08:44:51.785Z,25.40
2022-07-30T08:47:20.930Z,25.80
2022-07-30T08:49:49.146Z,25.90
2022-07-30T08:52:16.033Z,26.00
2022-07-30T08:54:44.025Z,25.90
2022-07-30T08:57:11.946Z,25.70
2022-07-30T08:59:59.387Z,25.60
2022-07-30T09:02:29.219Z,25.70
2022-07-30T09:04:56.541Z,25.50
2022-07-30T09:07:23.596Z,25.60
2022-07-30T09:09:50.537Z,25.90
2022-07-30T09:12:34.963Z,26.10
2022-07-30T09:15:28.551Z,26.80
2022-07-30T09:18:03.185Z,27.30
2022-07-30T09:20:34.921Z,27.50
2022-07-30T09:23:04.206Z,27.50
2022-07-30T09:25:48.389Z,27.80
2022-07-30T09:28:16.723Z,28.10
2022-07-30T09:30:49.861Z,28.20
2022-07-30T09:33:41.773Z,28.40
2022-07-30T09:36:13.768Z,28.40
2022-07-30T09:38:53.929Z,28.50
2022-07-30T09:41:38.922Z,28.20
2022-07-30T09:44:07.186Z,28.60
2022-07-30T09:46:50.994Z,28.80
2022-07-30T09:49:23.007Z,29.20
2022-07-30T09:51:56.278Z,29.50
2022-07-30T09:54:25.343Z,29.10
2022-07-30T09:57:06.438Z,28.60
2022-07-30T09:59:50.321Z,28.90
2022-07-30T10:02:17.273Z,29.50
2022-07-30T10:04:44.200Z,29.80
2022-07-30T10:07:25.268Z,29.50
2022-07-30T10:09:54.228Z,28.70
2022-07-30T10:12:24.007Z,28.60
2022-07-30T10:14:53.731Z,28.90
2022-07-30T10:17:22.193Z,29.10
2022-07-30T10:19:49.144Z,29.60
2022-07-30T10:22:17.071Z,29.90
2022-07-30T10:24:45.949Z,29.70
2022-07-30T10:27:13.373Z,29.70
2022-07-30T10:29:42.835Z,30.00
2022-07-30T10:32:09.944Z,30.00
2022-07-30T10:34:42.596Z,30.10
2022-07-30T10:37:12.416Z,30.70
2022-07-30T10:39:47.322Z,30.10
2022-07-30T10:42:28.855Z,30.40
2022-07-30T10:45:17.180Z,30.50
2022-07-30T10:47:49.121Z,30.90
2022-07-30T10:50:19.540Z,30.90
2022-07-30T10:52:54.079Z,30.80
2022-07-30T10:55:37.557Z,30.10
2022-07-30T10:58:15.830Z,30.20
2022-07-30T11:00:53.899Z,30.30
2022-07-30T11:03:38.777Z,31.00
2022-07-30T11:06:16.997Z,31.10
2022-07-30T11:08:51.710Z,31.60
2022-07-30T11:11:59.371Z,31.30
2022-07-30T11:14:08.239Z,31.50
2022-07-30T11:16:35.009Z,31.60
2022-07-30T11:19:56.708Z,31.40
2022-07-30T11:22:22.086Z,31.00
2022-07-30T11:24:50.950Z,30.70
2022-07-30T11:27:38.850Z,30.70
2022-07-30T11:30:17.958Z,30.70
2022-07-30T11:32:48.661Z,30.80
2022-07-30T11:35:25.549Z,30.50
2022-07-30T11:38:03.063Z,30.40
2022-07-30T11:40:58.941Z,30.30
2022-07-30T11:43:36.254Z,30.00
2022-07-30T11:46:34.448Z,29.70
2022-07-30T11:49:08.639Z,29.30
2022-07-30T11:51:43.881Z,29.80
2022-07-30T11:54:11.767Z,30.50
2022-07-30T11:57:04.268Z,30.70
2022-07-30T11:59:31.663Z,30.80
2022-07-30T12:02:01.758Z,30.70
2022-07-30T12:04:29.789Z,31.30
2022-07-30T12:06:56.699Z,30.90
2022-07-30T12:09:27.347Z,31.50
2022-07-30T12:11:57.743Z,32.50
2022-07-30T12:14:24.813Z,32.50
2022-07-30T12:16:55.079Z,31.90
2022-07-30T12:19:22.038Z,31.20
2022-07-30T12:21:52.982Z,31.20
2022-07-30T12:24:26.080Z,31.80
2022-07-30T12:26:53.179Z,31.20
2022-07-30T12:29:20.304Z,30.40
2022-07-30T12:31:47.868Z,30.20
2022-07-30T12:34:25.450Z,30.10
2022-07-30T12:36:53.014Z,30.40
2022-07-30T12:39:24.857Z,30.20
2022-07-30T12:41:53.660Z,31.00
2022-07-30T12:44:41.688Z,31.70
2022-07-30T12:47:26.248Z,32.00
2022-07-30T12:49:54.600Z,32.00
2022-07-30T12:52:28.272Z,32.20
2022-07-30T12:55:09.578Z,32.20
2022-07-30T12:57:55.690Z,31.20
2022-07-30T13:00:24.958Z,31.70
2022-07-30T13:02:52.314Z,31.70
2022-07-30T13:05:19.406Z,31.30
2022-07-30T13:07:54.146Z,32.60
2022-07-30T13:10:21.186Z,33.70
2022-07-30T13:12:48.037Z,33.90
2022-07-30T13:15:22.408Z,34.00
2022-07-30T13:17:49.738Z,34.50
2022-07-30T13:20:17.779Z,35.10
2022-07-30T13:22:44.867Z,34.60
2022-07-30T13:25:11.797Z,35.00
2022-07-30T13:27:39.026Z,34.50
2022-07-30T13:30:06.898Z,33.90
2022-07-30T13:32:33.995Z,34.10
2022-07-30T13:35:01.855Z,33.30
2022-07-30T13:37:38.045Z,32.70
2022-07-30T13:40:07.091Z,32.50
2022-07-30T13:42:34.097Z,32.20
2022-07-30T13:45:01.059Z,32.10
2022-07-30T13:47:28.017Z,31.80
2022-07-30T13:49:54.913Z,32.00
2022-07-30T13:52:21.730Z,32.00
2022-07-30T13:54:50.825Z,33.20
2022-07-30T13:57:17.810Z,34.10
2022-07-30T13:59:44.656Z,32.90
2022-07-30T14:02:11.631Z,32.20
2022-07-30T14:04:38.559Z,31.50
2022-07-30T14:07:05.655Z,31.50
2022-07-30T14:09:33.169Z,32.20
2022-07-30T14:12:11.395Z,32.90
2022-07-30T14:14:39.129Z,32.10
2022-07-30T14:17:06.238Z,32.00
2022-07-30T14:19:38.867Z,32.00
2022-07-30T14:22:07.921Z,31.90
2022-07-30T14:24:34.723Z,32.10
2022-07-30T14:27:04.609Z,32.70
2022-07-30T14:29:31.915Z,33.50
2022-07-30T14:31:58.851Z,34.80
2022-07-30T14:34:25.714Z,34.80
2022-07-30T14:36:55.840Z,34.70
2022-07-30T14:39:28.850Z,34.40
2022-07-30T14:41:58.763Z,33.60
2022-07-30T14:44:32.875Z,33.50
2022-07-30T14:47:03.165Z,32.90
2022-07-30T14:49:30.722Z,32.10
2022-07-30T14:51:59.022Z,31.90
2022-07-30T14:54:27.897Z,31.90
2022-07-30T14:56:58.615Z,31.70
2022-07-30T14:59:30.247Z,31.80
2022-07-30T15:01:57.371Z,31.80
2022-07-30T15:04:24.317Z,31.40
2022-07-30T15:06:55.080Z,31.20
2022-07-30T15:09:22.087Z,31.00
2022-07-30T15:12:08.314Z,30.80
2022-07-30T15:14:40.937Z,30.50
2022-07-30T15:17:08.182Z,30.30
2022-07-30T15:19:35.049Z,30.20
2022-07-30T15:22:02.907Z,29.90
2022-07-30T15:24:31.462Z,29.90
2022-07-30T15:26:59.044Z,29.80
2022-07-30T15:29:29.373Z,29.90
2022-07-30T15:31:57.076Z,29.90
2022-07-30T15:34:25.109Z,30.00
2022-07-30T15:36:57.513Z,29.90
2022-07-30T15:39:31.820Z,30.80
2022-07-30T15:42:02.844Z,31.60
2022-07-30T15:44:32.728Z,32.00
2022-07-30T15:47:00.725Z,31.60
2022-07-30T15:49:30.398Z,30.10
2022-07-30T15:52:01.385Z,30.10
2022-07-30T15:54:31.583Z,30.70
2022-07-30T15:57:01.794Z,31.00
2022-07-30T15:59:31.674Z,31.80
2022-07-30T16:02:03.390Z,31.90
2022-07-30T16:04:35.838Z,31.30
2022-07-30T16:07:04.520Z,31.00
2022-07-30T16:09:40.562Z,30.80
2022-07-30T16:12:07.864Z,30.90
2022-07-30T16:14:37.986Z,31.00
2022-07-30T16:17:11.791Z,31.60
2022-07-30T16:19:46.459Z,31.80
2022-07-30T16:22:15.004Z,31.90
2022-07-30T16:24:48.873Z,32.20
2022-07-30T16:27:22.370Z,32.30
2022-07-30T16:29:49.161Z,32.40
2022-07-30T16:32:18.736Z,32.40
2022-07-30T16:34:45.610Z,32.60
2022-07-30T16:37:18.655Z,33.00
2022-07-30T16:39:48.675Z,32.60
2022-07-30T16:42:15.634Z,32.10
2022-07-30T16:44:42.536Z,31.70
2022-07-30T16:47:20.545Z,31.30
2022-07-30T16:49:47.458Z,30.90
2022-07-30T16:52:20.216Z,31.10
2022-07-30T16:54:47.122Z,31.60
2022-07-30T16:57:19.924Z,32.00
2022-07-30T16:59:46.755Z,32.40
2022-07-30T17:02:13.666Z,32.40
2022-07-30T17:04:44.156Z,32.20
2022-07-30T17:07:11.086Z,31.80
2022-07-30T17:09:40.331Z,31.60
2022-07-30T17:12:12.442Z,31.20
2022-07-30T17:14:42.609Z,30.50
2022-07-30T17:17:13.819Z,30.20
2022-07-30T17:19:43.578Z,29.90
2022-07-30T17:22:10.683Z,29.80
2022-07-30T17:24:37.859Z,29.90
2022-07-30T17:27:04.759Z,29.50
2022-07-30T17:29:49.612Z,29.40
2022-07-30T17:32:24.172Z,29.30
2022-07-30T17:34:57.702Z,29.10
2022-07-30T17:37:31.302Z,28.90
2022-07-30T17:40:27.064Z,28.70
2022-07-30T17:42:50.633Z,28.50
2022-07-30T17:45:17.535Z,28.40
2022-07-30T17:47:47.310Z,28.30
2022-07-30T17:50:19.781Z,28.30
2022-07-30T17:52:47.894Z,28.30
2022-07-30T17:55:14.779Z,28.10
2022-07-30T17:57:41.616Z,28.00
2022-07-30T18:00:11.816Z,27.90
2022-07-30T18:02:44.420Z,27.80
2022-07-30T18:05:14.424Z,27.90
2022-07-30T18:07:47.264Z,27.70
2022-07-30T18:10:14.255Z,27.80
2022-07-30T18:12:48.625Z,27.60
2022-07-30T18:15:17.652Z,27.60
2022-07-30T18:17:48.426Z,28.80
2022-07-30T18:20:19.098Z,27.40
2022-07-30T18:22:45.926Z,27.20
2022-07-30T18:25:23.211Z,27.00
2022-07-30T18:27:53.136Z,27.00
2022-07-30T18:30:19.977Z,26.60
2022-07-30T18:32:50.213Z,26.40
2022-07-30T18:35:19.050Z,26.60
2022-07-30T18:37:46.694Z,26.00
2022-07-30T18:40:23.383Z,26.00
2022-07-30T18:42:53.966Z,26.40
2022-07-30T18:45:20.957Z,26.20
2022-07-30T18:47:50.226Z,25.90
2022-07-30T18:50:20.544Z,25.80
2022-07-30T18:52:47.671Z,25.70
2022-07-30T18:55:14.986Z,25.60
2022-07-30T18:57:41.896Z,25.50
2022-07-30T19:00:30.941Z,25.30
2022-07-30T19:03:02.815Z,25.30
2022-07-30T19:05:34.834Z,25.20
2022-07-30T19:08:05.870Z,25.10
2022-07-30T19:10:35.410Z,25.10
2022-07-30T19:13:03.360Z,24.90
2022-07-30T19:15:32.851Z,24.80
2022-07-30T19:17:59.749Z,24.80
2022-07-30T19:20:28.371Z,24.70
2022-07-30T19:23:10.500Z,24.70
2022-07-30T19:25:43.017Z,24.70
2022-07-30T19:28:11.658Z,24.40
2022-07-30T19:30:38.478Z,24.40
2022-07-30T19:33:12.530Z,24.40
2022-07-30T19:35:41.848Z,24.60
2022-07-30T19:38:09.877Z,24.10
2022-07-30T19:40:39.617Z,24.00
2022-07-30T19:43:12.874Z,24.00
2022-07-30T19:45:46.693Z,23.90
2022-07-30T19:48:13.972Z,24.20
2022-07-30T19:50:43.405Z,23.80
2022-07-30T19:53:15.724Z,23.70
2022-07-30T19:55:42.677Z,23.60
2022-07-30T19:58:16.470Z,23.90
2022-07-30T20:00:49.268Z,23.40
2022-07-30T20:03:25.356Z,23.30
2022-07-30T20:05:58.383Z,23.20
2022-07-30T20:08:27.175Z,23.10
2022-07-30T20:10:57.773Z,23.10
2022-07-30T20:13:45.310Z,23.00
2022-07-30T20:16:14.485Z,22.90
2022-07-30T20:18:42.963Z,22.90
2022-07-30T20:21:14.875Z,22.90
2022-07-30T20:23:42.831Z,22.80
2022-07-30T20:26:13.937Z,23.10
2022-07-30T20:28:43.243Z,22.60
2022-07-30T20:31:11.844Z,22.60
2022-07-30T20:33:40.125Z,22.50
2022-07-30T20:36:09.862Z,22.30
2022-07-30T20:38:38.786Z,22.20
2022-07-30T20:41:09.996Z,22.40
2022-07-30T20:43:51.420Z,22.20
2022-07-30T20:46:20.433Z,22.10
2022-07-30T20:48:49.921Z,22.10
2022-07-30T20:51:16.811Z,22.00
2022-07-30T20:53:45.238Z,22.00
2022-07-30T20:56:13.564Z,22.30
2022-07-30T20:58:59.633Z,21.90
2022-07-30T21:01:28.710Z,21.80
2022-07-30T21:03:57.706Z,21.10
2022-07-30T21:06:26.249Z,21.60
2022-07-30T21:08:55.304Z,21.60
2022-07-30T21:11:23.477Z,21.40
2022-07-30T21:13:50.530Z,22.00
2022-07-30T21:16:21.551Z,21.70
2022-07-30T21:18:50.482Z,21.40
2022-07-30T21:21:29.291Z,21.40
2022-07-30T21:24:06.172Z,21.40
2022-07-30T21:26:41.745Z,21.40
2022-07-30T21:29:09.513Z,21.30
2022-07-30T21:32:00.553Z,21.40
2022-07-30T21:34:26.461Z,21.30
2022-07-30T21:36:54.347Z,21.20
2022-07-30T21:42:09.405Z,21.40
2022-07-30T21:44:38.044Z,21.40
2022-07-30T21:47:08.412Z,21.10
2022-07-30T21:49:37.122Z,21.00
2022-07-30T21:52:05.000Z,20.90
2022-07-30T21:54:45.226Z,20.80
2022-07-30T21:57:16.290Z,20.80
2022-07-30T21:59:53.912Z,20.80
2022-07-30T22:02:23.226Z,20.80
2022-07-30T22:04:51.632Z,20.70
2022-07-30T22:07:18.504Z,20.70
2022-07-30T22:09:48.969Z,21.00
2022-07-30T22:12:18.266Z,20.80
2022-07-30T22:14:45.396Z,20.70
2022-07-30T22:17:23.512Z,20.70
2022-07-30T22:20:03.934Z,20.80
2022-07-30T22:22:36.285Z,20.70
2022-07-30T22:25:06.795Z,20.80
2022-07-30T22:27:39.991Z,20.70
2022-07-30T22:30:24.242Z,20.70
2022-07-30T22:32:54.122Z,20.70
2022-07-30T22:35:34.078Z,20.60
2022-07-30T22:38:02.410Z,20.60
2022-07-30T22:40:29.768Z,20.60
2022-07-30T22:42:56.710Z,20.70
2022-07-30T22:45:36.038Z,20.60
2022-07-30T22:48:14.008Z,20.60
2022-07-30T22:50:40.925Z,20.60
2022-07-30T22:54:02.849Z,20.50
2022-07-30T22:55:56.025Z,20.50
2022-07-30T22:58:24.250Z,20.50
2022-07-30T23:00:53.408Z,20.40
2022-07-30T23:03:20.362Z,20.40
2022-07-30T23:05:55.988Z,20.40
2022-07-30T23:08:30.291Z,20.40
2022-07-30T23:10:59.741Z,20.30
2022-07-30T23:12:33.211Z,21.20
2022-07-30T23:13:27.544Z,20.30
2022-07-30T23:15:54.366Z,20.30
2022-07-30T23:18:24.126Z,20.30
2022-07-30T23:20:51.028Z,20.30
2022-07-30T23:23:17.994Z,20.30
2022-07-30T23:25:45.180Z,20.30
2022-07-30T23:28:11.968Z,20.20
2022-07-30T23:30:38.797Z,20.20
2022-07-30T23:33:05.744Z,20.20
2022-07-30T23:35:33.477Z,20.20
2022-07-30T23:38:00.338Z,20.20
2022-07-30T23:40:28.412Z,20.10
2022-07-30T23:42:55.364Z,20.10
2022-07-30T23:45:22.221Z,20.10
2022-07-30T23:47:55.969Z,20.10
2022-07-30T23:50:31.699Z,20.30
2022-07-30T23:52:58.692Z,20.00
2022-07-30T23:55:27.168Z,20.10
2022-07-30T23:57:54.438Z,20.00
